ENLK

Leknes Airport

Leknes, Norway
METAR ENLK 172050Z 31006KT 9999 -SHSN FEW005 SCT015 BKN035 02/00 Q1001
Observed Flight Rules
Dec-17 @ 20:50 UTC (33 minutes ago) Visual Flight Rules
Wind Visibility Clouds Conditions
310° at 6 knots 10,000+ meters
  • Few at 500' AGL
  • Scattered at 1,500' AGL
  • Broken at 3,500' AGL
  • Light Snow
Temperatures Readings
Current 2°C / 36°F
Dewpoint 0°C / 32°F
Humidity 87%
Altimeter 29.56" Hg
Pressure 1001 hPa
Elevation 26
METAR ENLK 172050Z 31006KT 9999 -SHSN FEW005 SCT015 BKN035 02/00 Q1001
Observed Flight Rules
Dec-17 @ 20:50 UTC
(33 minutes ago)
VFR
Wind Visibility
310° at 6 knots 10,000+ meters
Clouds
  • Few at 500' AGL
  • Scattered at 1,500' AGL
  • Broken at 3,500' AGL
Conditions
  • Light Snow
Temperature Dewpoint
2°C / 36°F 0°C / 32°F
Humidity Altimeter Pressure
87% 29.56" Hg 1001 hPa